Time;durP1;ratioP1;P1;durP2;ratioP2;P2;SDS_P1;SDS_P2;PMS_P1;PMS_P2;Temp;Humidity;BMP_temperature;BMP_pressure;BME280_temperature;BME280_humidity;BME280_pressure;Samples;Min_cycle;Max_cycle;Signal;HPM_P1;HPM_P2
2021/03/09 00:01:37;;;;;;;6.20;5.50;;;;;;;;;;4972505;28;20455;-62
2021/03/09 00:04:04;;;;;;;6.00;5.50;;;;;;;;;;4969183;28;20847;-63
2021/03/09 00:06:30;;;;;;;5.53;5.13;;;;;;;;;;4971752;28;20986;-63
2021/03/09 00:08:57;;;;;;;6.63;5.97;;;;;;;;;;4962886;28;20886;-63
2021/03/09 00:11:24;;;;;;;6.30;5.57;;;;;;;;;;4954651;28;20814;-63
2021/03/09 00:13:50;;;;;;;5.63;5.13;;;;;;;;;;4971957;28;20444;-63
2021/03/09 00:16:18;;;;;;;5.57;5.07;;;;;;;;;;4971673;28;20865;-64
2021/03/09 00:18:44;;;;;;;6.70;5.40;;;;;;;;;;4956335;28;20476;-63
2021/03/09 00:21:11;;;;;;;5.80;5.20;;;;;;;;;;4964343;28;20455;-63
2021/03/09 00:23:37;;;;;;;6.13;5.47;;;;;;;;;;4959739;28;20493;-63
2021/03/09 00:26:04;;;;;;;5.70;5.20;;;;;;;;;;4962386;28;20967;-63
2021/03/09 00:28:31;;;;;;;6.87;6.20;;;;;;;;;;4959161;28;20484;-63
2021/03/09 00:30:57;;;;;;;5.07;4.63;;;;;;;;;;4963751;28;20846;-64
2021/03/09 00:33:25;;;;;;;5.53;4.90;;;;;;;;;;4973466;28;20860;-63
2021/03/09 00:35:51;;;;;;;5.67;5.17;;;;;;;;;;4979794;28;20462;-64
2021/03/09 00:38:18;;;;;;;6.97;6.27;;;;;;;;;;4967875;28;20498;-63
2021/03/09 00:40:45;;;;;;;5.87;5.20;;;;;;;;;;4968472;28;20512;-63
2021/03/09 00:43:11;;;;;;;5.00;4.60;;;;;;;;;;4974221;28;20479;-63
2021/03/09 00:45:38;;;;;;;5.47;5.07;;;;;;;;;;4975394;28;20466;-64
2021/03/09 00:48:05;;;;;;;5.20;4.80;;;;;;;;;;4975721;28;20478;-62
2021/03/09 00:50:32;;;;;;;6.03;5.40;;;;;;;;;;4976011;28;20462;-63
2021/03/09 00:52:59;;;;;;;6.13;5.53;;;;;;;;;;4975869;28;20455;-63
2021/03/09 00:55:26;;;;;;;5.63;5.13;;;;;;;;;;4974463;28;20456;-63
2021/03/09 00:57:56;;;;;;;6.20;5.60;;;;;;;;;;4975972;28;20474;-63
2021/03/09 01:00:23;;;;;;;5.60;5.10;;;;;;;;;;4975683;28;20459;-63
2021/03/09 01:02:49;;;;;;;5.60;5.10;;;;;;;;;;4974849;28;20482;-63
2021/03/09 01:05:16;;;;;;;6.83;5.30;;;;;;;;;;4973318;28;20461;-64
2021/03/09 01:07:44;;;;;;;5.47;4.97;;;;;;;;;;4975707;28;20529;-63
2021/03/09 01:10:11;;;;;;;5.30;4.80;;;;;;;;;;4956606;29;20444;-64
2021/03/09 01:12:38;;;;;;;6.00;5.33;;;;;;;;;;4984276;28;20452;-63
2021/03/09 01:15:05;;;;;;;5.80;5.27;;;;;;;;;;4975500;28;20611;-65
2021/03/09 01:17:32;;;;;;;5.80;5.20;;;;;;;;;;4975517;28;20467;-63
2021/03/09 01:19:59;;;;;;;5.73;5.23;;;;;;;;;;4959208;28;20457;-63
2021/03/09 01:22:25;;;;;;;6.13;5.53;;;;;;;;;;4968305;28;20479;-63
2021/03/09 01:24:54;;;;;;;5.97;5.30;;;;;;;;;;4975457;28;20474;-64
2021/03/09 01:27:21;;;;;;;6.43;4.90;;;;;;;;;;4973731;28;20487;-62
2021/03/09 01:29:47;;;;;;;5.33;4.80;;;;;;;;;;5010609;23;20506;-65
2021/03/09 01:32:14;;;;;;;7.83;5.33;;;;;;;;;;4974073;28;20487;-65
2021/03/09 01:34:40;;;;;;;4.77;4.37;;;;;;;;;;4975661;28;20454;-66
2021/03/09 01:37:07;;;;;;;5.17;4.60;;;;;;;;;;4974143;28;20458;-65
2021/03/09 01:39:34;;;;;;;5.60;5.00;;;;;;;;;;4975179;28;20471;-66
2021/03/09 01:42:01;;;;;;;5.10;4.60;;;;;;;;;;4956054;28;20943;-66
2021/03/09 01:44:28;;;;;;;5.10;4.57;;;;;;;;;;4959696;28;20457;-65
2021/03/09 01:46:57;;;;;;;5.40;4.23;;;;;;;;;;4955359;28;20452;-66
2021/03/09 01:49:25;;;;;;;5.30;4.10;;;;;;;;;;4956810;28;20480;-64
2021/03/09 01:51:52;;;;;;;4.93;4.53;;;;;;;;;;4971137;28;20464;-63
2021/03/09 01:54:18;;;;;;;5.30;4.90;;;;;;;;;;4974282;28;20459;-65
2021/03/09 01:56:45;;;;;;;7.20;4.50;;;;;;;;;;4956051;28;20461;-65
2021/03/09 01:59:14;;;;;;;5.00;4.60;;;;;;;;;;4956125;28;20999;-64
2021/03/09 02:01:40;;;;;;;5.03;4.53;;;;;;;;;;4955413;28;20455;-65
2021/03/09 02:04:07;;;;;;;5.67;5.13;;;;;;;;;;4956709;28;20496;-65
2021/03/09 02:06:35;;;;;;;4.60;4.20;;;;;;;;;;4956424;28;20457;-65
2021/03/09 02:09:02;;;;;;;4.43;4.03;;;;;;;;;;4965491;28;20498;-65
2021/03/09 02:11:33;;;;;;;5.00;4.50;;;;;;;;;;4959950;28;20460;-65
2021/03/09 02:14:01;;;;;;;4.50;4.20;;;;;;;;;;4963086;28;20437;-64
2021/03/09 02:16:31;;;;;;;5.37;4.17;;;;;;;;;;4956138;29;20905;-64
2021/03/09 02:19:00;;;;;;;4.43;4.07;;;;;;;;;;4964183;28;20479;-65
2021/03/09 02:21:42;;;;;;;4.47;4.07;;;;;;;;;;4971316;28;20458;-64
2021/03/09 02:24:19;;;;;;;4.10;3.80;;;;;;;;;;4956916;28;20492;-65
2021/03/09 02:26:51;;;;;;;4.73;4.13;;;;;;;;;;4956602;29;20452;-65
2021/03/09 02:29:31;;;;;;;4.57;4.17;;;;;;;;;;4956804;28;21038;-65
2021/03/09 02:31:59;;;;;;;4.43;4.03;;;;;;;;;;4956912;29;20471;-64
2021/03/09 02:34:29;;;;;;;4.30;4.00;;;;;;;;;;4965894;28;20447;-64
2021/03/09 02:36:57;;;;;;;4.73;4.33;;;;;;;;;;4977568;28;20459;-65
2021/03/09 02:39:24;;;;;;;5.07;4.47;;;;;;;;;;4967096;28;20480;-65
2021/03/09 02:41:54;;;;;;;4.63;4.23;;;;;;;;;;4967123;29;20454;-64
2021/03/09 02:44:21;;;;;;;4.63;4.00;;;;;;;;;;4968474;28;20459;-65
2021/03/09 02:46:49;;;;;;;3.63;3.33;;;;;;;;;;4967931;28;20454;-64
2021/03/09 02:49:17;;;;;;;3.53;3.30;;;;;;;;;;4971341;28;20881;-65
2021/03/09 02:51:44;;;;;;;4.10;3.80;;;;;;;;;;4976308;28;20459;-65
2021/03/09 02:54:13;;;;;;;4.50;3.80;;;;;;;;;;4983810;28;20803;-66
2021/03/09 02:56:40;;;;;;;4.67;4.27;;;;;;;;;;4968532;29;20456;-63
2021/03/09 02:59:08;;;;;;;4.40;4.00;;;;;;;;;;4969201;28;20503;-65
2021/03/09 03:01:35;;;;;;;4.00;3.60;;;;;;;;;;4968600;29;20458;-65
2021/03/09 03:04:03;;;;;;;4.70;4.30;;;;;;;;;;4983498;28;20533;-65
2021/03/09 03:06:32;;;;;;;4.23;3.83;;;;;;;;;;4955392;28;20483;-64
2021/03/09 03:09:01;;;;;;;4.30;3.90;;;;;;;;;;4965667;28;20475;-64
2021/03/09 03:11:28;;;;;;;4.97;4.47;;;;;;;;;;4963001;28;20568;-64
2021/03/09 03:13:55;;;;;;;4.17;3.83;;;;;;;;;;4973907;28;20454;-65
2021/03/09 03:16:22;;;;;;;4.67;4.27;;;;;;;;;;4959095;28;20479;-63
2021/03/09 03:18:49;;;;;;;4.17;3.77;;;;;;;;;;4972319;28;20538;-65
2021/03/09 03:21:17;;;;;;;5.03;4.53;;;;;;;;;;4960766;28;20467;-64
2021/03/09 03:33:19;;;;;;;4.90;4.50;;;;;;;;;;4956169;28;20424;-64
2021/03/09 03:35:46;;;;;;;6.00;4.83;;;;;;;;;;4953805;29;20439;-64
2021/03/09 03:38:15;;;;;;;4.73;4.30;;;;;;;;;;4964257;28;20962;-65
2021/03/09 03:40:41;;;;;;;4.37;3.97;;;;;;;;;;4973263;28;20454;-65
2021/03/09 03:43:08;;;;;;;4.60;4.20;;;;;;;;;;4956013;28;20510;-64
2021/03/09 03:45:34;;;;;;;5.13;4.47;;;;;;;;;;4954089;29;20449;-64
2021/03/09 03:48:01;;;;;;;7.03;5.00;;;;;;;;;;4953744;28;20507;-65
2021/03/09 03:50:29;;;;;;;5.83;4.83;;;;;;;;;;4954037;29;20476;-65
2021/03/09 03:53:01;;;;;;;5.23;4.70;;;;;;;;;;4953672;28;20451;-65
2021/03/09 03:55:34;;;;;;;7.60;4.80;;;;;;;;;;4953453;29;20943;-64
2021/03/09 03:58:06;;;;;;;5.57;4.43;;;;;;;;;;4957724;28;20979;-65
2021/03/09 04:00:33;;;;;;;5.30;4.80;;;;;;;;;;4953321;29;20452;-64
2021/03/09 04:03:01;;;;;;;4.80;4.40;;;;;;;;;;4954365;28;20484;-65
2021/03/09 04:05:29;;;;;;;5.30;4.80;;;;;;;;;;4955090;28;20452;-64
2021/03/09 04:07:57;;;;;;;5.00;4.27;;;;;;;;;;4962359;28;20509;-65
2021/03/09 04:10:24;;;;;;;4.40;4.00;;;;;;;;;;4953591;29;20472;-65
2021/03/09 04:12:52;;;;;;;5.10;4.67;;;;;;;;;;4953332;28;20509;-63
2021/03/09 04:15:18;;;;;;;5.33;4.83;;;;;;;;;;4952785;28;21223;-65
2021/03/09 04:17:45;;;;;;;5.83;5.23;;;;;;;;;;4956899;28;20453;-65
2021/03/09 04:20:13;;;;;;;4.97;4.57;;;;;;;;;;4974390;28;20475;-65
2021/03/09 04:22:40;;;;;;;4.60;4.20;;;;;;;;;;4970108;28;20483;-64
2021/03/09 04:25:08;;;;;;;5.30;4.80;;;;;;;;;;4957306;29;20819;-64
2021/03/09 04:27:36;;;;;;;4.87;4.47;;;;;;;;;;4958682;28;20456;-66
2021/03/09 04:30:04;;;;;;;5.00;4.40;;;;;;;;;;4956934;29;21029;-64
2021/03/09 04:32:31;;;;;;;4.83;4.43;;;;;;;;;;4961128;28;20501;-63
2021/03/09 04:34:58;;;;;;;4.90;4.50;;;;;;;;;;4957385;29;20514;-64
2021/03/09 04:37:25;;;;;;;5.13;4.67;;;;;;;;;;4956382;28;20451;-64
2021/03/09 04:39:51;;;;;;;5.53;4.73;;;;;;;;;;4969615;28;20480;-64
2021/03/09 04:42:18;;;;;;;5.47;4.90;;;;;;;;;;4957999;28;20959;-65
2021/03/09 04:44:45;;;;;;;5.13;4.63;;;;;;;;;;4960581;28;20456;-64
2021/03/09 04:47:12;;;;;;;4.67;4.37;;;;;;;;;;4956416;28;20459;-65
2021/03/09 04:49:39;;;;;;;5.73;4.90;;;;;;;;;;4972554;28;20468;-65
2021/03/09 04:52:06;;;;;;;4.90;4.50;;;;;;;;;;4956602;29;20471;-64
2021/03/09 04:54:34;;;;;;;5.07;4.67;;;;;;;;;;4960536;28;20502;-65
2021/03/09 04:57:01;;;;;;;5.30;4.50;;;;;;;;;;4960854;28;20452;-65
2021/03/09 04:59:27;;;;;;;4.93;4.53;;;;;;;;;;4976091;28;20474;-65
2021/03/09 05:01:55;;;;;;;5.53;4.23;;;;;;;;;;4965103;28;20519;-63
2021/03/09 05:04:21;;;;;;;4.77;4.40;;;;;;;;;;4963287;28;20486;-64
2021/03/09 05:06:48;;;;;;;5.80;5.30;;;;;;;;;;4966494;28;20451;-63
2021/03/09 05:09:14;;;;;;;4.97;4.57;;;;;;;;;;4957434;28;20484;-64
2021/03/09 05:11:42;;;;;;;6.03;4.93;;;;;;;;;;4966656;28;20459;-65
2021/03/09 05:14:09;;;;;;;5.93;5.43;;;;;;;;;;4956149;28;20951;-65
2021/03/09 05:16:35;;;;;;;5.60;5.10;;;;;;;;;;4956439;29;20448;-65
2021/03/09 05:19:03;;;;;;;7.83;5.90;;;;;;;;;;4956844;28;20559;-64
2021/03/09 05:21:30;;;;;;;5.40;4.90;;;;;;;;;;4972576;28;20463;-64
2021/03/09 05:23:57;;;;;;;6.53;5.87;;;;;;;;;;4966654;28;20484;-65
2021/03/09 05:26:24;;;;;;;5.80;5.20;;;;;;;;;;4956124;29;20460;-65
2021/03/09 05:28:50;;;;;;;6.60;5.57;;;;;;;;;;4954752;28;20496;-64
2021/03/09 05:31:17;;;;;;;5.87;5.40;;;;;;;;;;4958337;28;20465;-64
2021/03/09 05:33:44;;;;;;;6.30;5.87;;;;;;;;;;4959812;28;20515;-65
2021/03/09 05:36:11;;;;;;;5.77;5.27;;;;;;;;;;4965868;28;20545;-64
2021/03/09 05:38:38;;;;;;;6.37;5.87;;;;;;;;;;4957054;28;20825;-65
2021/03/09 05:41:05;;;;;;;7.07;6.37;;;;;;;;;;4955864;28;20454;-64
2021/03/09 05:43:32;;;;;;;6.80;5.43;;;;;;;;;;4955254;28;20480;-66
2021/03/09 05:45:59;;;;;;;6.33;5.60;;;;;;;;;;4955808;28;20548;-65
2021/03/09 05:48:25;;;;;;;5.50;5.10;;;;;;;;;;4972982;28;20475;-66
2021/03/09 05:50:54;;;;;;;6.00;5.40;;;;;;;;;;4969350;28;20443;-65
2021/03/09 05:53:22;;;;;;;5.70;5.30;;;;;;;;;;4962278;28;20448;-66
2021/03/09 05:55:49;;;;;;;6.93;6.07;;;;;;;;;;4955752;29;20455;-66
2021/03/09 05:58:17;;;;;;;6.53;5.90;;;;;;;;;;4955412;28;20966;-65
2021/03/09 06:00:43;;;;;;;6.00;5.50;;;;;;;;;;4958542;28;20456;-65
2021/03/09 06:03:10;;;;;;;8.90;5.80;;;;;;;;;;4960161;28;20861;-66
2021/03/09 06:05:37;;;;;;;6.47;5.87;;;;;;;;;;4955403;29;20537;-65
2021/03/09 06:08:04;;;;;;;7.93;6.00;;;;;;;;;;4950663;28;20452;-65
2021/03/09 06:10:31;;;;;;;5.70;5.13;;;;;;;;;;4975014;28;20448;-65
2021/03/09 06:12:58;;;;;;;6.13;5.63;;;;;;;;;;4961609;28;20511;-65
2021/03/09 06:15:24;;;;;;;7.70;6.50;;;;;;;;;;4955212;28;20606;-65
2021/03/09 06:17:55;;;;;;;7.13;6.43;;;;;;;;;;4955511;28;20448;-65
2021/03/09 06:20:23;;;;;;;7.27;6.67;;;;;;;;;;4955174;28;20474;-64
2021/03/09 06:22:50;;;;;;;7.40;6.63;;;;;;;;;;4955076;29;20487;-63
2021/03/09 06:25:18;;;;;;;7.17;6.57;;;;;;;;;;4954413;29;20456;-66
2021/03/09 06:27:45;;;;;;;7.23;6.63;;;;;;;;;;4954878;28;20453;-65
2021/03/09 06:30:13;;;;;;;7.47;6.70;;;;;;;;;;4949561;28;20487;-65
2021/03/09 06:32:41;;;;;;;7.47;6.87;;;;;;;;;;4955575;29;20967;-64
2021/03/09 06:35:08;;;;;;;7.80;7.10;;;;;;;;;;4955107;28;20463;-62
2021/03/09 06:37:34;;;;;;;8.00;7.37;;;;;;;;;;4953995;28;20872;-63
2021/03/09 06:40:03;;;;;;;7.80;7.00;;;;;;;;;;4960521;28;20471;-63
2021/03/09 06:42:35;;;;;;;7.17;6.57;;;;;;;;;;4961647;28;20543;-62
2021/03/09 06:45:04;;;;;;;7.03;6.43;;;;;;;;;;4954651;28;20463;-65
2021/03/09 06:47:35;;;;;;;7.50;6.80;;;;;;;;;;4954791;28;20457;-62
2021/03/09 06:50:03;;;;;;;7.50;6.43;;;;;;;;;;4955986;28;20482;-62
2021/03/09 06:52:30;;;;;;;7.70;6.50;;;;;;;;;;4955300;28;20460;-62
2021/03/09 06:54:56;;;;;;;7.20;6.60;;;;;;;;;;4957665;28;20464;-62
2021/03/09 06:57:23;;;;;;;9.60;6.67;;;;;;;;;;4954518;28;20460;-63
2021/03/09 06:59:51;;;;;;;7.40;6.80;;;;;;;;;;4954776;28;20480;-62
2021/03/09 07:02:20;;;;;;;19.77;4.10;;;;;;;;;;4956158;28;20456;-63
2021/03/09 07:04:47;;;;;;;10.17;3.17;;;;;;;;;;4960563;28;20970;-63
2021/03/09 07:07:14;;;;;;;5.47;3.00;;;;;;;;;;4959596;28;20478;-64
2021/03/09 07:09:42;;;;;;;3.07;2.40;;;;;;;;;;4972681;28;21014;-65
2021/03/09 07:12:10;;;;;;;4.40;2.63;;;;;;;;;;4954510;28;20452;-65
2021/03/09 07:14:39;;;;;;;5.33;2.23;;;;;;;;;;4971638;28;20506;-67
2021/03/09 07:17:06;;;;;;;3.13;2.33;;;;;;;;;;4953545;28;20452;-65
2021/03/09 07:19:38;;;;;;;2.43;2.17;;;;;;;;;;4972301;28;20472;-67
2021/03/09 07:22:06;;;;;;;3.30;1.97;;;;;;;;;;4953739;28;20507;-68
2021/03/09 07:24:33;;;;;;;4.20;2.33;;;;;;;;;;4965352;28;20494;-65
2021/03/09 07:27:11;;;;;;;3.20;2.20;;;;;;;;;;4953547;28;20460;-65
2021/03/09 07:29:37;;;;;;;3.27;2.33;;;;;;;;;;4971085;28;20492;-68
2021/03/09 07:32:05;;;;;;;3.17;2.20;;;;;;;;;;4955266;28;20609;-67
2021/03/09 07:34:32;;;;;;;4.20;2.90;;;;;;;;;;4953918;28;20956;-67
2021/03/09 07:36:59;;;;;;;3.40;2.23;;;;;;;;;;4953439;29;21060;-67
2021/03/09 07:39:26;;;;;;;3.37;2.47;;;;;;;;;;4954069;28;20472;-67
2021/03/09 07:41:53;;;;;;;2.30;2.10;;;;;;;;;;4953491;29;20503;-67
2021/03/09 07:44:20;;;;;;;2.57;2.30;;;;;;;;;;4954209;28;20484;-66
2021/03/09 07:46:46;;;;;;;3.57;2.10;;;;;;;;;;4952934;29;20956;-67
2021/03/09 07:49:14;;;;;;;5.53;3.20;;;;;;;;;;4958930;28;20479;-67
2021/03/09 07:51:59;;;;;;;2.63;2.43;;;;;;;;;;4966764;28;20519;-67
2021/03/09 07:54:27;;;;;;;3.23;2.63;;;;;;;;;;4953901;28;20452;-66
2021/03/09 07:57:24;;;;;;;2.90;2.37;;;;;;;;;;4952881;29;20463;-67
2021/03/09 07:59:58;;;;;;;3.77;2.87;;;;;;;;;;4896657;29;20497;-67
2021/03/09 08:02:40;;;;;;;4.50;2.73;;;;;;;;;;4949176;28;20514;-67
2021/03/09 08:05:07;;;;;;;4.00;3.30;;;;;;;;;;4949376;28;20455;-68
2021/03/09 08:08:02;;;;;;;2.40;2.10;;;;;;;;;;4953561;28;20452;-68
2021/03/09 08:10:40;;;;;;;4.53;4.13;;;;;;;;;;4922088;28;20491;-64
2021/03/09 08:13:22;;;;;;;7.70;7.00;;;;;;;;;;4954160;28;20457;-64
2021/03/09 08:15:49;;;;;;;8.67;7.80;;;;;;;;;;4972817;28;20451;-64
2021/03/09 08:18:41;;;;;;;9.40;8.40;;;;;;;;;;4956574;28;20460;-64
2021/03/09 08:21:07;;;;;;;8.43;7.73;;;;;;;;;;4953712;28;20479;-64
2021/03/09 08:23:53;;;;;;;5.60;4.37;;;;;;;;;;4968441;28;20479;-66
2021/03/09 08:26:38;;;;;;;5.63;3.83;;;;;;;;;;4959966;28;20461;-66
2021/03/09 08:29:31;;;;;;;5.30;3.47;;;;;;;;;;4947638;28;20871;-66
2021/03/09 08:32:13;;;;;;;3.93;3.50;;;;;;;;;;4954634;28;20443;-67
2021/03/09 08:34:39;;;;;;;4.07;2.50;;;;;;;;;;4952910;29;20443;-67
2021/03/09 08:37:29;;;;;;;9.47;2.80;;;;;;;;;;4958561;28;20952;-66
2021/03/09 08:40:06;;;;;;;5.43;2.83;;;;;;;;;;4972433;28;20463;-66
2021/03/09 08:42:47;;;;;;;5.10;2.83;;;;;;;;;;4944561;28;20446;-67
2021/03/09 08:45:34;;;;;;;2.73;2.40;;;;;;;;;;4969630;28;20939;-66
2021/03/09 08:48:01;;;;;;;3.90;2.73;;;;;;;;;;4943185;28;20452;-67
2021/03/09 08:50:40;;;;;;;3.90;3.30;;;;;;;;;;4952450;28;20464;-67
2021/03/09 08:53:06;;;;;;;3.50;2.83;;;;;;;;;;4957880;28;21100;-66
2021/03/09 08:55:33;;;;;;;3.03;2.60;;;;;;;;;;4952629;28;20451;-66
2021/03/09 08:58:06;;;;;;;4.23;3.00;;;;;;;;;;4958938;28;20447;-66
2021/03/09 09:00:39;;;;;;;4.63;2.93;;;;;;;;;;4972246;28;20435;-66
2021/03/09 09:03:06;;;;;;;3.17;2.73;;;;;;;;;;4966755;28;20475;-66
2021/03/09 09:05:33;;;;;;;9.33;8.63;;;;;;;;;;4956094;29;20451;-64
2021/03/09 09:07:59;;;;;;;10.43;9.37;;;;;;;;;;4961045;28;20455;-64
2021/03/09 09:10:26;;;;;;;12.33;11.00;;;;;;;;;;4974308;28;20467;-60
2021/03/09 09:12:53;;;;;;;11.90;10.87;;;;;;;;;;4956822;28;20452;-64
2021/03/09 09:15:21;;;;;;;12.20;10.97;;;;;;;;;;4955995;29;20515;-64
2021/03/09 09:17:53;;;;;;;12.43;11.20;;;;;;;;;;4956378;28;20458;-65
2021/03/09 09:20:21;;;;;;;11.80;10.60;;;;;;;;;;4956295;29;20578;-64
2021/03/09 09:22:50;;;;;;;13.20;11.30;;;;;;;;;;4958093;28;20452;-64
2021/03/09 09:25:17;;;;;;;12.57;11.30;;;;;;;;;;4974981;28;20459;-65
2021/03/09 09:27:48;;;;;;;13.53;11.97;;;;;;;;;;4937982;28;20456;-63
2021/03/09 09:30:16;;;;;;;12.60;11.30;;;;;;;;;;4974873;28;20482;-64
2021/03/09 09:32:44;;;;;;;14.00;12.10;;;;;;;;;;4974815;28;20886;-63
2021/03/09 09:35:12;;;;;;;11.70;10.60;;;;;;;;;;4950875;28;20943;-63
2021/03/09 09:37:45;;;;;;;12.83;11.63;;;;;;;;;;4975582;28;20451;-65
2021/03/09 09:40:12;;;;;;;12.77;11.60;;;;;;;;;;4974794;28;20479;-64
2021/03/09 09:42:39;;;;;;;13.83;12.53;;;;;;;;;;4975015;28;20451;-64
2021/03/09 09:45:06;;;;;;;13.03;11.70;;;;;;;;;;4957136;28;20460;-62
2021/03/09 09:47:33;;;;;;;14.00;12.60;;;;;;;;;;4959707;28;20460;-62
2021/03/09 09:50:00;;;;;;;11.80;10.70;;;;;;;;;;4966484;28;20468;-62
2021/03/09 09:52:27;;;;;;;15.70;14.07;;;;;;;;;;4955270;29;20460;-62
2021/03/09 09:54:55;;;;;;;13.23;11.93;;;;;;;;;;4957498;28;20987;-63
2021/03/09 09:57:21;;;;;;;14.20;12.93;;;;;;;;;;4955134;29;20456;-62
2021/03/09 09:59:48;;;;;;;13.30;12.10;;;;;;;;;;4956034;28;20476;-63
2021/03/09 10:02:16;;;;;;;14.00;12.70;;;;;;;;;;4957697;28;20460;-62
2021/03/09 10:04:42;;;;;;;13.70;12.53;;;;;;;;;;4955368;28;20566;-63
2021/03/09 10:07:19;;;;;;;13.07;11.87;;;;;;;;;;4963340;28;20463;-62
2021/03/09 10:10:03;;;;;;;14.47;13.17;;;;;;;;;;4959467;28;20472;-62
2021/03/09 10:12:35;;;;;;;13.10;12.00;;;;;;;;;;4953643;28;20443;-62
2021/03/09 10:15:01;;;;;;;13.37;11.97;;;;;;;;;;4965814;28;20448;-63
2021/03/09 10:17:28;;;;;;;14.07;12.40;;;;;;;;;;4960035;28;20835;-62
2021/03/09 10:19:55;;;;;;;14.40;13.00;;;;;;;;;;4966861;28;20472;-65
2021/03/09 10:22:22;;;;;;;13.83;12.53;;;;;;;;;;4955678;28;20536;-64
2021/03/09 10:24:49;;;;;;;13.77;12.50;;;;;;;;;;4962827;28;20488;-65
2021/03/09 10:27:16;;;;;;;11.80;10.70;;;;;;;;;;4959209;28;20460;-62
2021/03/09 10:29:44;;;;;;;12.47;11.27;;;;;;;;;;4968868;28;20857;-65
2021/03/09 10:32:14;;;;;;;14.13;12.77;;;;;;;;;;4955184;28;20944;-65
2021/03/09 10:34:42;;;;;;;12.60;11.30;;;;;;;;;;4970646;28;20463;-66
2021/03/09 10:37:09;;;;;;;12.80;11.50;;;;;;;;;;4967202;28;20510;-65
2021/03/09 10:39:37;;;;;;;12.17;10.97;;;;;;;;;;4961534;28;20551;-63
2021/03/09 10:42:22;;;;;;;12.70;11.60;;;;;;;;;;4954843;28;20452;-64
2021/03/09 10:44:49;;;;;;;12.00;10.80;;;;;;;;;;4960612;28;20510;-65
2021/03/09 10:47:16;;;;;;;12.27;11.07;;;;;;;;;;4960526;28;20448;-65
2021/03/09 10:49:42;;;;;;;12.77;11.50;;;;;;;;;;4955285;28;20472;-64
2021/03/09 10:52:10;;;;;;;12.27;11.27;;;;;;;;;;4954809;29;20452;-63
2021/03/09 10:54:37;;;;;;;13.00;11.80;;;;;;;;;;4954338;28;20817;-64
2021/03/09 10:57:06;;;;;;;13.10;11.90;;;;;;;;;;4954268;28;20456;-64
2021/03/09 10:59:32;;;;;;;12.53;11.43;;;;;;;;;;4953337;28;20483;-63
2021/03/09 11:02:00;;;;;;;12.07;10.87;;;;;;;;;;4954678;28;20662;-63
2021/03/09 11:04:27;;;;;;;13.27;11.97;;;;;;;;;;4954106;28;21007;-63
2021/03/09 11:06:53;;;;;;;13.00;11.80;;;;;;;;;;4954038;28;20468;-63
2021/03/09 11:09:20;;;;;;;13.10;11.83;;;;;;;;;;4962824;28;20479;-63
2021/03/09 11:11:47;;;;;;;12.30;11.00;;;;;;;;;;4954308;29;20455;-63
2021/03/09 11:14:13;;;;;;;12.77;11.57;;;;;;;;;;4962869;28;20451;-64
2021/03/09 11:16:40;;;;;;;12.07;10.97;;;;;;;;;;4973332;28;20458;-63
2021/03/09 11:19:07;;;;;;;11.93;10.83;;;;;;;;;;4954590;28;20476;-63
2021/03/09 11:21:34;;;;;;;12.77;11.60;;;;;;;;;;4954248;28;20471;-63
2021/03/09 11:24:01;;;;;;;12.20;11.00;;;;;;;;;;4970163;28;20554;-63
2021/03/09 11:26:29;;;;;;;12.30;11.07;;;;;;;;;;4953825;28;20457;-63
2021/03/09 11:28:56;;;;;;;12.63;11.53;;;;;;;;;;4954455;28;20508;-64
2021/03/09 11:31:23;;;;;;;11.63;10.63;;;;;;;;;;4954317;29;20476;-64
2021/03/09 11:33:50;;;;;;;13.40;12.00;;;;;;;;;;4965190;28;20450;-63
2021/03/09 11:36:18;;;;;;;8.97;8.13;;;;;;;;;;4934471;29;20937;-64
2021/03/09 11:38:45;;;;;;;12.43;11.23;;;;;;;;;;4949453;28;20835;-63
2021/03/09 11:41:12;;;;;;;12.77;11.47;;;;;;;;;;4954078;29;20448;-63
2021/03/09 11:43:39;;;;;;;13.53;12.23;;;;;;;;;;4965377;28;20483;-64
2021/03/09 11:46:06;;;;;;;13.30;12.00;;;;;;;;;;4973368;28;20840;-63
2021/03/09 11:48:33;;;;;;;12.10;11.00;;;;;;;;;;4964507;28;20469;-64
2021/03/09 11:51:00;;;;;;;11.67;10.67;;;;;;;;;;4971440;28;20861;-63
2021/03/09 11:53:27;;;;;;;12.97;11.77;;;;;;;;;;4963498;28;20451;-64
2021/03/09 11:55:54;;;;;;;12.90;11.70;;;;;;;;;;4969700;28;20452;-63
2021/03/09 11:58:21;;;;;;;13.40;12.20;;;;;;;;;;4957814;28;20464;-64
2021/03/09 12:00:47;;;;;;;13.63;12.40;;;;;;;;;;4961768;28;20458;-63
2021/03/09 12:03:14;;;;;;;13.50;11.20;;;;;;;;;;4954414;28;20480;-64
2021/03/09 12:05:40;;;;;;;13.50;12.30;;;;;;;;;;4958197;28;20822;-63
2021/03/09 12:08:07;;;;;;;13.43;12.13;;;;;;;;;;4953580;28;20456;-64
2021/03/09 12:10:35;;;;;;;14.20;12.97;;;;;;;;;;4953361;29;20448;-63
2021/03/09 12:13:01;;;;;;;13.50;12.10;;;;;;;;;;4952393;29;20463;-63
2021/03/09 12:15:28;;;;;;;13.00;11.80;;;;;;;;;;4967114;28;20524;-63
2021/03/09 12:17:55;;;;;;;13.67;12.47;;;;;;;;;;4953578;29;20468;-63
2021/03/09 12:20:21;;;;;;;12.87;11.60;;;;;;;;;;4954531;28;20476;-63
2021/03/09 12:22:48;;;;;;;13.83;12.53;;;;;;;;;;4953177;29;20460;-63
2021/03/09 12:25:15;;;;;;;12.63;11.53;;;;;;;;;;4953552;28;20523;-63
2021/03/09 12:27:42;;;;;;;13.63;12.17;;;;;;;;;;4953106;29;20828;-63
2021/03/09 12:30:10;;;;;;;12.73;11.60;;;;;;;;;;4967484;28;20840;-63
2021/03/09 12:32:37;;;;;;;13.30;11.93;;;;;;;;;;4959866;28;20461;-63
2021/03/09 12:35:04;;;;;;;13.13;11.90;;;;;;;;;;4960403;28;20940;-63
2021/03/09 12:37:31;;;;;;;12.57;11.47;;;;;;;;;;4952727;28;20840;-64
2021/03/09 12:39:58;;;;;;;13.50;12.17;;;;;;;;;;4955966;28;20488;-63
2021/03/09 12:42:25;;;;;;;12.87;11.80;;;;;;;;;;4956749;29;20486;-64
2021/03/09 12:44:53;;;;;;;12.70;11.60;;;;;;;;;;4956851;29;20849;-63
2021/03/09 12:47:21;;;;;;;12.10;11.00;;;;;;;;;;4968589;28;20513;-63
2021/03/09 12:49:47;;;;;;;11.90;10.80;;;;;;;;;;4972471;28;20534;-63
2021/03/09 12:52:14;;;;;;;17.83;12.17;;;;;;;;;;4956665;28;20477;-64
2021/03/09 12:54:40;;;;;;;12.63;11.43;;;;;;;;;;4954285;28;21014;-64
2021/03/09 12:57:07;;;;;;;12.77;11.57;;;;;;;;;;4956462;28;20483;-63
2021/03/09 12:59:34;;;;;;;12.97;11.67;;;;;;;;;;4962007;28;20467;-63
2021/03/09 13:02:01;;;;;;;13.17;11.97;;;;;;;;;;4959303;28;20451;-64
2021/03/09 13:04:28;;;;;;;13.63;11.80;;;;;;;;;;4975068;28;20479;-63
2021/03/09 13:06:54;;;;;;;12.17;10.97;;;;;;;;;;4956771;28;20448;-63
2021/03/09 13:09:21;;;;;;;13.37;12.17;;;;;;;;;;4964202;28;20538;-64
2021/03/09 13:11:48;;;;;;;12.00;10.97;;;;;;;;;;4959913;28;20471;-63
2021/03/09 13:14:15;;;;;;;12.40;11.20;;;;;;;;;;4975359;28;21020;-64
2021/03/09 13:16:41;;;;;;;11.73;10.73;;;;;;;;;;4958028;28;20456;-63
2021/03/09 13:19:09;;;;;;;11.53;10.50;;;;;;;;;;4956777;28;20476;-63
2021/03/09 13:21:36;;;;;;;12.93;11.13;;;;;;;;;;4957215;28;20448;-63
2021/03/09 13:24:02;;;;;;;11.40;10.40;;;;;;;;;;4956468;29;20487;-63
2021/03/09 13:26:29;;;;;;;15.30;11.43;;;;;;;;;;4956301;28;20456;-63
2021/03/09 13:28:56;;;;;;;12.47;11.30;;;;;;;;;;4956777;29;20506;-63
2021/03/09 13:31:22;;;;;;;12.63;10.60;;;;;;;;;;4976905;23;20502;-64
2021/03/09 13:33:49;;;;;;;12.77;11.50;;;;;;;;;;4952331;29;20560;-61
2021/03/09 13:36:16;;;;;;;11.13;10.13;;;;;;;;;;4956510;28;20955;-61
2021/03/09 13:38:43;;;;;;;13.97;11.43;;;;;;;;;;4955663;29;20448;-62
2021/03/09 13:41:10;;;;;;;14.83;10.70;;;;;;;;;;4957063;28;20500;-62
2021/03/09 13:43:38;;;;;;;12.07;10.93;;;;;;;;;;4956750;29;20508;-63
2021/03/09 13:46:05;;;;;;;12.30;11.10;;;;;;;;;;4955464;29;20681;-63
2021/03/09 13:48:31;;;;;;;12.60;11.50;;;;;;;;;;4956088;28;20512;-64
2021/03/09 13:50:59;;;;;;;12.10;10.90;;;;;;;;;;4958362;28;20492;-65
2021/03/09 13:53:26;;;;;;;12.53;11.43;;;;;;;;;;4956664;28;20448;-62
2021/03/09 13:55:56;;;;;;;11.97;10.93;;;;;;;;;;4956462;29;20508;-63
2021/03/09 13:58:22;;;;;;;13.07;11.77;;;;;;;;;;4956036;28;20523;-64
2021/03/09 14:00:49;;;;;;;13.47;12.10;;;;;;;;;;4956601;29;20467;-63
2021/03/09 14:03:16;;;;;;;12.43;11.27;;;;;;;;;;4955793;29;20460;-63
2021/03/09 14:05:42;;;;;;;12.50;11.40;;;;;;;;;;4956247;29;20460;-64
2021/03/09 14:08:09;;;;;;;12.57;11.47;;;;;;;;;;4956224;28;20452;-63
2021/03/09 14:10:37;;;;;;;12.10;10.90;;;;;;;;;;4956270;29;20810;-63
2021/03/09 14:13:03;;;;;;;12.93;11.67;;;;;;;;;;4956432;29;20483;-62
2021/03/09 14:15:30;;;;;;;13.20;12.00;;;;;;;;;;4956957;29;20456;-61
2021/03/09 14:17:56;;;;;;;13.20;12.00;;;;;;;;;;4955339;29;20823;-62
2021/03/09 14:20:23;;;;;;;13.37;12.07;;;;;;;;;;4950396;28;20951;-63
2021/03/09 14:22:50;;;;;;;13.20;12.10;;;;;;;;;;4958423;28;20480;-63
2021/03/09 14:25:17;;;;;;;14.13;12.90;;;;;;;;;;4946498;28;21018;-63
2021/03/09 14:27:44;;;;;;;12.57;11.47;;;;;;;;;;4953836;29;20472;-63
2021/03/09 14:30:12;;;;;;;13.03;11.80;;;;;;;;;;4954674;29;20971;-63
2021/03/09 14:32:38;;;;;;;13.40;12.10;;;;;;;;;;4953066;28;20503;-63
2021/03/09 14:35:06;;;;;;;12.57;11.47;;;;;;;;;;4954918;29;20943;-63
2021/03/09 14:37:32;;;;;;;12.73;11.53;;;;;;;;;;4952442;29;20534;-63
2021/03/09 14:39:59;;;;;;;13.53;12.13;;;;;;;;;;4952649;28;20469;-63
2021/03/09 14:42:26;;;;;;;13.37;12.07;;;;;;;;;;4953923;28;20488;-64
2021/03/09 14:44:53;;;;;;;13.70;12.33;;;;;;;;;;4953167;28;20488;-63
2021/03/09 14:47:20;;;;;;;12.53;11.33;;;;;;;;;;4954122;29;20823;-63
2021/03/09 14:49:46;;;;;;;13.53;11.93;;;;;;;;;;4955585;28;20978;-63